sensor_id;sensor_type;location;lat;lon;timestamp;pressure;altitude;pressure_sealevel;temperature
50206;BMP280;36098;48.390;10.856;2023-05-02T00:00:05;96107.53;;;22.95
50206;BMP280;36098;48.390;10.856;2023-05-02T00:02:30;96118.59;;;22.92
50206;BMP280;36098;48.390;10.856;2023-05-02T00:04:55;96113.84;;;22.94
50206;BMP280;36098;48.390;10.856;2023-05-02T00:07:21;96127.06;;;22.84
50206;BMP280;36098;48.390;10.856;2023-05-02T00:09:46;96118.63;;;22.77
50206;BMP280;36098;48.390;10.856;2023-05-02T00:12:11;96115.97;;;22.77
50206;BMP280;36098;48.390;10.856;2023-05-02T00:14:37;96112.59;;;22.76
50206;BMP280;36098;48.390;10.856;2023-05-02T00:17:02;96109.69;;;22.83
50206;BMP280;36098;48.390;10.856;2023-05-02T00:19:27;96114.44;;;22.81
50206;BMP280;36098;48.390;10.856;2023-05-02T00:21:52;96119.97;;;22.74
50206;BMP280;36098;48.390;10.856;2023-05-02T00:24:17;96126.00;;;22.75
50206;BMP280;36098;48.390;10.856;2023-05-02T00:26:43;96127.81;;;22.84
50206;BMP280;36098;48.390;10.856;2023-05-02T00:29:08;96134.69;;;22.75
50206;BMP280;36098;48.390;10.856;2023-05-02T00:31:33;96127.81;;;22.84
50206;BMP280;36098;48.390;10.856;2023-05-02T00:33:59;96138.63;;;22.83
50206;BMP280;36098;48.390;10.856;2023-05-02T00:36:24;96131.78;;;22.82
50206;BMP280;36098;48.390;10.856;2023-05-02T00:38:51;96128.09;;;22.88
50206;BMP280;36098;48.390;10.856;2023-05-02T00:41:16;96128.09;;;22.83
50206;BMP280;36098;48.390;10.856;2023-05-02T00:43:41;96122.31;;;22.76
50206;BMP280;36098;48.390;10.856;2023-05-02T00:46:07;96127.06;;;22.79
50206;BMP280;36098;48.390;10.856;2023-05-02T00:48:32;96129.69;;;22.79
50206;BMP280;36098;48.390;10.856;2023-05-02T00:50:59;96129.69;;;22.79
50206;BMP280;36098;48.390;10.856;2023-05-02T00:53:26;96120.19;;;22.78
50206;BMP280;36098;48.390;10.856;2023-05-02T00:55:51;96122.31;;;22.76
50206;BMP280;36098;48.390;10.856;2023-05-02T00:58:18;96116.00;;;22.72
50206;BMP280;36098;48.390;10.856;2023-05-02T01:06:09;96121.25;;;22.72
50206;BMP280;36098;48.390;10.856;2023-05-02T01:08:38;96124.94;;;22.71
50206;BMP280;36098;48.390;10.856;2023-05-02T01:13:32;96124.69;;;22.72
50206;BMP280;36098;48.390;10.856;2023-05-02T01:15:58;96128.66;;;22.70
50206;BMP280;36098;48.390;10.856;2023-05-02T01:18:25;96124.19;;;22.70
50206;BMP280;36098;48.390;10.856;2023-05-02T01:20:56;96128.09;;;22.73
50206;BMP280;36098;48.390;10.856;2023-05-02T01:30:54;96134.19;;;22.68
50206;BMP280;36098;48.390;10.856;2023-05-02T01:33:20;96135.50;;;22.66
50206;BMP280;36098;48.390;10.856;2023-05-02T01:35:47;96134.69;;;22.65
50206;BMP280;36098;48.390;10.856;2023-05-02T01:38:14;96137.06;;;22.72
50206;BMP280;36098;48.390;10.856;2023-05-02T01:40:41;96143.41;;;22.66
50206;BMP280;36098;48.390;10.856;2023-05-02T01:43:09;96152.88;;;22.62
50206;BMP280;36098;48.390;10.856;2023-05-02T01:45:35;96147.31;;;22.63
50206;BMP280;36098;48.390;10.856;2023-05-02T01:48:02;96147.09;;;22.60
50206;BMP280;36098;48.390;10.856;2023-05-02T01:50:27;96144.47;;;22.60
50206;BMP280;36098;48.390;10.856;2023-05-02T01:52:52;96149.44;;;22.66
50206;BMP280;36098;48.390;10.856;2023-05-02T01:55:19;96147.06;;;22.65
50206;BMP280;36098;48.390;10.856;2023-05-02T01:57:45;96152.34;;;22.65
50206;BMP280;36098;48.390;10.856;2023-05-02T02:00:11;96149.19;;;22.63
50206;BMP280;36098;48.390;10.856;2023-05-02T02:02:36;96148.91;;;22.59
50206;BMP280;36098;48.390;10.856;2023-05-02T02:05:03;96145.22;;;22.60
50206;BMP280;36098;48.390;10.856;2023-05-02T02:07:29;96149.19;;;22.63
50206;BMP280;36098;48.390;10.856;2023-05-02T02:09:54;96147.06;;;22.65
50206;BMP280;36098;48.390;10.856;2023-05-02T02:17:57;96151.81;;;22.63
50206;BMP280;36098;48.390;10.856;2023-05-02T02:20:23;96151.81;;;22.63
50206;BMP280;36098;48.390;10.856;2023-05-02T02:22:49;96139.44;;;22.58
50206;BMP280;36098;48.390;10.856;2023-05-02T02:25:15;96151.81;;;22.68
50206;BMP280;36098;48.390;10.856;2023-05-02T02:27:41;96152.34;;;22.65
50206;BMP280;36098;48.390;10.856;2023-05-02T02:30:07;96149.69;;;22.55
50206;BMP280;36098;48.390;10.856;2023-05-02T02:32:32;96150.22;;;22.57
50206;BMP280;36098;48.390;10.856;2023-05-02T02:34:57;96148.66;;;22.66
50206;BMP280;36098;48.390;10.856;2023-05-02T02:38:07;96155.50;;;22.57
50206;BMP280;36098;48.390;10.856;2023-05-02T02:40:20;96153.41;;;22.59
50206;BMP280;36098;48.390;10.856;2023-05-02T02:47:41;96155.25;;;22.53
50206;BMP280;36098;48.390;10.856;2023-05-02T02:55:18;96163.91;;;22.49
50206;BMP280;36098;48.390;10.856;2023-05-02T02:57:46;96170.50;;;22.56
50206;BMP280;36098;48.390;10.856;2023-05-02T03:00:18;96170.50;;;22.56
50206;BMP280;36098;48.390;10.856;2023-05-02T03:02:44;96166.03;;;22.52
50206;BMP280;36098;48.390;10.856;2023-05-02T03:05:10;96173.91;;;22.52
50206;BMP280;36098;48.390;10.856;2023-05-02T03:07:35;96178.13;;;22.58
50206;BMP280;36098;48.390;10.856;2023-05-02T03:10:03;96181.28;;;22.50
50206;BMP280;36098;48.390;10.856;2023-05-02T03:12:29;96180.25;;;22.46
50206;BMP280;36098;48.390;10.856;2023-05-02T03:17:47;96182.09;;;22.50
50206;BMP280;36098;48.390;10.856;2023-05-02T03:20:12;96194.44;;;22.50
50206;BMP280;36098;48.390;10.856;2023-05-02T03:22:37;96196.31;;;22.54
50206;BMP280;36098;48.390;10.856;2023-05-02T03:25:02;96191.56;;;22.56
50206;BMP280;36098;48.390;10.856;2023-05-02T03:27:28;96199.19;;;22.48
50206;BMP280;36098;48.390;10.856;2023-05-02T03:29:53;96204.97;;;22.45
50206;BMP280;36098;48.390;10.856;2023-05-02T03:32:18;96208.66;;;22.49
50206;BMP280;36098;48.390;10.856;2023-05-02T03:34:43;96209.97;;;22.46
50206;BMP280;36098;48.390;10.856;2023-05-02T03:37:08;96211.81;;;22.46
50206;BMP280;36098;48.390;10.856;2023-05-02T03:39:33;96212.88;;;22.45
50206;BMP280;36098;48.390;10.856;2023-05-02T03:41:58;96216.03;;;22.42
50206;BMP280;36098;48.390;10.856;2023-05-02T03:44:24;96215.75;;;22.48
50206;BMP280;36098;48.390;10.856;2023-05-02T03:46:49;96223.38;;;22.50
50206;BMP280;36098;48.390;10.856;2023-05-02T03:49:15;96221.81;;;22.44
50206;BMP280;36098;48.390;10.856;2023-05-02T03:51:40;96215.75;;;22.38
50206;BMP280;36098;48.390;10.856;2023-05-02T03:54:06;96226.56;;;22.42
50206;BMP280;36098;48.390;10.856;2023-05-02T03:56:31;96225.50;;;22.43
50206;BMP280;36098;48.390;10.856;2023-05-02T03:58:56;96221.81;;;22.39
50206;BMP280;36098;48.390;10.856;2023-05-02T04:01:22;96233.13;;;22.39
50206;BMP280;36098;48.390;10.856;2023-05-02T04:03:47;96224.97;;;22.46
50206;BMP280;36098;48.390;10.856;2023-05-02T04:06:12;96225.75;;;22.41
50206;BMP280;36098;48.390;10.856;2023-05-02T04:08:37;96229.19;;;22.42
50206;BMP280;36098;48.390;10.856;2023-05-02T04:11:03;96224.44;;;22.44
50206;BMP280;36098;48.390;10.856;2023-05-02T04:13:28;96229.19;;;22.47
50206;BMP280;36098;48.390;10.856;2023-05-02T04:15:53;96234.97;;;22.44
50206;BMP280;36098;48.390;10.856;2023-05-02T04:18:19;96238.13;;;22.46
50206;BMP280;36098;48.390;10.856;2023-05-02T04:20:44;96233.09;;;22.34
50206;BMP280;36098;48.390;10.856;2023-05-02T04:23:09;96237.84;;;22.42
50206;BMP280;36098;48.390;10.856;2023-05-02T04:25:34;96230.75;;;22.48
50206;BMP280;36098;48.390;10.856;2023-05-02T04:28:00;96238.91;;;22.41
50206;BMP280;36098;48.390;10.856;2023-05-02T04:30:25;96242.06;;;22.38
50206;BMP280;36098;48.390;10.856;2023-05-02T04:32:50;96247.31;;;22.38
50206;BMP280;36098;48.390;10.856;2023-05-02T04:35:16;96260.16;;;22.30
50206;BMP280;36098;48.390;10.856;2023-05-02T04:37:41;96247.53;;;22.22
50206;BMP280;36098;48.390;10.856;2023-05-02T04:40:06;96261.44;;;22.17
50206;BMP280;36098;48.390;10.856;2023-05-02T04:42:32;96267.47;;;22.13
50206;BMP280;36098;48.390;10.856;2023-05-02T04:44:58;96266.19;;;22.25
50206;BMP280;36098;48.390;10.856;2023-05-02T04:47:23;96260.13;;;22.15
50206;BMP280;36098;48.390;10.856;2023-05-02T04:49:48;96268.25;;;22.08
50206;BMP280;36098;48.390;10.856;2023-05-02T04:52:13;96268.75;;;22.05
50206;BMP280;36098;48.390;10.856;2023-05-02T04:54:38;96270.91;;;22.13
50206;BMP280;36098;48.390;10.856;2023-05-02T04:57:04;96280.09;;;22.16
50206;BMP280;36098;48.390;10.856;2023-05-02T04:59:31;96281.69;;;22.12
50206;BMP280;36098;48.390;10.856;2023-05-02T05:01:57;96281.69;;;22.17
50206;BMP280;36098;48.390;10.856;2023-05-02T05:04:23;96288.00;;;22.11
50206;BMP280;36098;48.390;10.856;2023-05-02T05:06:48;96286.69;;;22.18
50206;BMP280;36098;48.390;10.856;2023-05-02T05:09:13;96291.19;;;22.23
50206;BMP280;36098;48.390;10.856;2023-05-02T05:11:39;96295.13;;;22.25
50206;BMP280;36098;48.390;10.856;2023-05-02T05:14:06;96301.22;;;22.36
50206;BMP280;36098;48.390;10.856;2023-05-02T05:16:31;96297.31;;;22.43
50206;BMP280;36098;48.390;10.856;2023-05-02T05:18:57;96302.88;;;22.52
50206;BMP280;36098;48.390;10.856;2023-05-02T05:21:22;96299.72;;;22.45
50206;BMP280;36098;48.390;10.856;2023-05-02T05:23:47;96310.16;;;22.35
50206;BMP280;36098;48.390;10.856;2023-05-02T05:26:13;96307.53;;;22.35
50206;BMP280;36098;48.390;10.856;2023-05-02T05:28:41;96303.84;;;22.31
50206;BMP280;36098;48.390;10.856;2023-05-02T05:31:08;96305.22;;;22.38
50206;BMP280;36098;48.390;10.856;2023-05-02T05:33:34;96309.84;;;22.21
50206;BMP280;36098;48.390;10.856;2023-05-02T05:36:03;96310.13;;;22.25
50206;BMP280;36098;48.390;10.856;2023-05-02T05:38:28;96313.31;;;22.37
50206;BMP280;36098;48.390;10.856;2023-05-02T05:40:53;96318.38;;;22.38
50206;BMP280;36098;48.390;10.856;2023-05-02T05:43:18;96320.25;;;22.48
50206;BMP280;36098;48.390;10.856;2023-05-02T05:45:44;96323.38;;;22.40
50206;BMP280;36098;48.390;10.856;2023-05-02T05:48:09;96322.78;;;22.28
50206;BMP280;36098;48.390;10.856;2023-05-02T05:50:34;96328.03;;;22.28
50206;BMP280;36098;48.390;10.856;2023-05-02T05:52:59;96328.34;;;22.36
50206;BMP280;36098;48.390;10.856;2023-05-02T05:55:26;96323.63;;;22.43
50206;BMP280;36098;48.390;10.856;2023-05-02T05:57:51;96323.09;;;22.46
50206;BMP280;36098;48.390;10.856;2023-05-02T06:00:16;96326.75;;;22.35
50206;BMP280;36098;48.390;10.856;2023-05-02T06:02:41;96327.50;;;22.31
50206;BMP280;36098;48.390;10.856;2023-05-02T06:05:07;96327.75;;;22.24
50206;BMP280;36098;48.390;10.856;2023-05-02T06:07:32;96335.41;;;22.26
50206;BMP280;36098;48.390;10.856;2023-05-02T06:09:57;96339.84;;;22.20
50206;BMP280;36098;48.390;10.856;2023-05-02T06:12:22;96352.72;;;22.17
50206;BMP280;36098;48.390;10.856;2023-05-02T06:14:48;96344.03;;;22.11
50206;BMP280;36098;48.390;10.856;2023-05-02T06:17:13;96346.44;;;22.28
50206;BMP280;36098;48.390;10.856;2023-05-02T06:19:38;96346.03;;;22.51
50206;BMP280;36098;48.390;10.856;2023-05-02T06:22:03;96348.47;;;22.72
50206;BMP280;36098;48.390;10.856;2023-05-02T06:24:29;96355.84;;;22.80
50206;BMP280;36098;48.390;10.856;2023-05-02T06:26:54;96352.44;;;22.90
50206;BMP280;36098;48.390;10.856;2023-05-02T06:29:19;96359.00;;;22.72
50206;BMP280;36098;48.390;10.856;2023-05-02T06:31:44;96359.75;;;22.63
50206;BMP280;36098;48.390;10.856;2023-05-02T06:34:10;96365.56;;;22.70
50206;BMP280;36098;48.390;10.856;2023-05-02T06:36:35;96371.63;;;22.70
50206;BMP280;36098;48.390;10.856;2023-05-02T06:39:00;96375.81;;;22.61
50206;BMP280;36098;48.390;10.856;2023-05-02T06:41:25;96380.28;;;22.66
50206;BMP280;36098;48.390;10.856;2023-05-02T06:43:50;96382.78;;;23.22
50206;BMP280;36098;48.390;10.856;2023-05-02T06:46:15;96386.75;;;23.20
50206;BMP280;36098;48.390;10.856;2023-05-02T06:48:41;96389.59;;;23.03
50206;BMP280;36098;48.390;10.856;2023-05-02T06:51:06;96392.63;;;22.55
50206;BMP280;36098;48.390;10.856;2023-05-02T06:53:31;96401.00;;;22.47
50206;BMP280;36098;48.390;10.856;2023-05-02T06:55:57;96392.16;;;22.68
50206;BMP280;36098;48.390;10.856;2023-05-02T06:58:22;96392.94;;;22.69
50206;BMP280;36098;48.390;10.856;2023-05-02T07:00:47;96395.09;;;22.87
50206;BMP280;36098;48.390;10.856;2023-05-02T07:03:14;96397.25;;;23.10
50206;BMP280;36098;48.390;10.856;2023-05-02T07:05:39;96399.34;;;23.08
50206;BMP280;36098;48.390;10.856;2023-05-02T07:08:05;96405.38;;;23.03
50206;BMP280;36098;48.390;10.856;2023-05-02T07:10:30;96401.94;;;22.83
50206;BMP280;36098;48.390;10.856;2023-05-02T07:12:56;96405.06;;;22.75
50206;BMP280;36098;48.390;10.856;2023-05-02T07:15:21;96410.81;;;22.62
50206;BMP280;36098;48.390;10.856;2023-05-02T07:17:46;96407.16;;;22.63
50206;BMP280;36098;48.390;10.856;2023-05-02T07:20:11;96405.03;;;22.60
50206;BMP280;36098;48.390;10.856;2023-05-02T07:22:37;96407.09;;;22.53
50206;BMP280;36098;48.390;10.856;2023-05-02T07:25:02;96412.88;;;22.55
50206;BMP280;36098;48.390;10.856;2023-05-02T07:27:27;96408.13;;;22.52
50206;BMP280;36098;48.390;10.856;2023-05-02T07:29:53;96407.59;;;22.45
50206;BMP280;36098;48.390;10.856;2023-05-02T07:32:18;96405.72;;;22.40
50206;BMP280;36098;48.390;10.856;2023-05-02T07:34:44;96407.06;;;22.43
50206;BMP280;36098;48.390;10.856;2023-05-02T07:37:09;96407.06;;;22.43
50206;BMP280;36098;48.390;10.856;2023-05-02T07:39:35;96409.41;;;22.44
50206;BMP280;36098;48.390;10.856;2023-05-02T07:42:00;96413.09;;;22.38
50206;BMP280;36098;48.390;10.856;2023-05-02T07:44:27;96409.94;;;22.46
50206;BMP280;36098;48.390;10.856;2023-05-02T07:46:53;96413.91;;;22.44
50206;BMP280;36098;48.390;10.856;2023-05-02T07:49:18;96408.66;;;22.49
50206;BMP280;36098;48.390;10.856;2023-05-02T07:51:44;96408.72;;;22.64
50206;BMP280;36098;48.390;10.856;2023-05-02T07:54:19;96412.59;;;22.46
50206;BMP280;36098;48.390;10.856;2023-05-02T07:56:44;96405.56;;;22.62
50206;BMP280;36098;48.390;10.856;2023-05-02T07:59:10;96413.78;;;22.80
50206;BMP280;36098;48.390;10.856;2023-05-02T08:01:35;96424.06;;;22.97
50206;BMP280;36098;48.390;10.856;2023-05-02T08:04:02;96422.03;;;23.14
50206;BMP280;36098;48.390;10.856;2023-05-02T08:06:28;96426.25;;;23.15
50206;BMP280;36098;48.390;10.856;2023-05-02T08:08:53;96424.88;;;23.07
50206;BMP280;36098;48.390;10.856;2023-05-02T08:11:18;96419.88;;;23.06
50206;BMP280;36098;48.390;10.856;2023-05-02T08:13:45;96426.75;;;23.02
50206;BMP280;36098;48.390;10.856;2023-05-02T08:16:11;96431.72;;;22.98
50206;BMP280;36098;48.390;10.856;2023-05-02T08:18:36;96435.69;;;23.11
50206;BMP280;36098;48.390;10.856;2023-05-02T08:21:01;96438.84;;;22.98
50206;BMP280;36098;48.390;10.856;2023-05-02T08:23:26;96435.09;;;22.79
50206;BMP280;36098;48.390;10.856;2023-05-02T08:25:52;96435.34;;;22.82
50206;BMP280;36098;48.390;10.856;2023-05-02T08:28:18;96434.31;;;22.78
50206;BMP280;36098;48.390;10.856;2023-05-02T08:30:43;96442.00;;;23.05
50206;BMP280;36098;48.390;10.856;2023-05-02T08:33:09;96442.00;;;23.05
50206;BMP280;36098;48.390;10.856;2023-05-02T08:35:34;96440.50;;;23.33
50206;BMP280;36098;48.390;10.856;2023-05-02T08:38:00;96440.44;;;23.09
50206;BMP280;36098;48.390;10.856;2023-05-02T08:40:25;96439.69;;;23.13
50206;BMP280;36098;48.390;10.856;2023-05-02T08:42:51;96439.91;;;23.07
50206;BMP280;36098;48.390;10.856;2023-05-02T08:45:16;96455.78;;;23.31
50206;BMP280;36098;48.390;10.856;2023-05-02T08:47:42;96447.63;;;23.33
50206;BMP280;36098;48.390;10.856;2023-05-02T08:50:09;96458.34;;;23.02
50206;BMP280;36098;48.390;10.856;2023-05-02T08:52:35;96452.03;;;22.98
50206;BMP280;36098;48.390;10.856;2023-05-02T08:55:00;96452.28;;;23.01
50206;BMP280;36098;48.390;10.856;2023-05-02T08:57:27;96457.81;;;23.00
50206;BMP280;36098;48.390;10.856;2023-05-02T08:59:53;96463.63;;;23.02
50206;BMP280;36098;48.390;10.856;2023-05-02T09:02:37;96464.72;;;23.16
50206;BMP280;36098;48.390;10.856;2023-05-02T09:05:05;96460.97;;;23.07
50206;BMP280;36098;48.390;10.856;2023-05-02T09:07:41;96468.16;;;23.11
50206;BMP280;36098;48.390;10.856;2023-05-02T09:10:07;96468.91;;;23.12
50206;BMP280;36098;48.390;10.856;2023-05-02T09:12:33;96479.34;;;22.82
50206;BMP280;36098;48.390;10.856;2023-05-02T09:15:08;96485.09;;;22.74
50206;BMP280;36098;48.390;10.856;2023-05-02T09:17:43;96487.69;;;22.64
50206;BMP280;36098;48.390;10.856;2023-05-02T09:20:12;96484.47;;;22.57
50206;BMP280;36098;48.390;10.856;2023-05-02T09:22:38;96483.94;;;22.50
50206;BMP280;36098;48.390;10.856;2023-05-02T09:25:07;96491.00;;;22.44
50206;BMP280;36098;48.390;10.856;2023-05-02T09:30:20;96487.84;;;22.47
50206;BMP280;36098;48.390;10.856;2023-05-02T09:32:47;96499.19;;;22.48
50206;BMP280;36098;48.390;10.856;2023-05-02T09:35:12;96498.22;;;22.59
50206;BMP280;36098;48.390;10.856;2023-05-02T09:37:38;96500.19;;;22.93
50206;BMP280;36098;48.390;10.856;2023-05-02T09:40:07;96495.84;;;23.24
50206;BMP280;36098;48.390;10.856;2023-05-02T09:42:33;96506.41;;;23.38
50206;BMP280;36098;48.390;10.856;2023-05-02T09:44:58;96496.94;;;23.52
50206;BMP280;36098;48.390;10.856;2023-05-02T09:47:24;96506.66;;;23.42
50206;BMP280;36098;48.390;10.856;2023-05-02T09:49:50;96507.88;;;23.10
50206;BMP280;36098;48.390;10.856;2023-05-02T09:52:16;96507.06;;;23.04
50206;BMP280;36098;48.390;10.856;2023-05-02T09:54:42;96508.34;;;22.97
50206;BMP280;36098;48.390;10.856;2023-05-02T09:57:07;96505.72;;;22.97
50206;BMP280;36098;48.390;10.856;2023-05-02T09:59:34;96510.22;;;23.06
50206;BMP280;36098;48.390;10.856;2023-05-02T10:02:03;96508.09;;;22.98
50206;BMP280;36098;48.390;10.856;2023-05-02T10:04:29;96511.47;;;22.79
50206;BMP280;36098;48.390;10.856;2023-05-02T10:06:55;96514.63;;;22.81
50206;BMP280;36098;48.390;10.856;2023-05-02T10:09:21;96510.97;;;22.97
50206;BMP280;36098;48.390;10.856;2023-05-02T10:11:50;96516.22;;;22.92
50206;BMP280;36098;48.390;10.856;2023-05-02T10:14:15;96511.03;;;23.02
50206;BMP280;36098;48.390;10.856;2023-05-02T10:16:52;96506.41;;;23.43
50206;BMP280;36098;48.390;10.856;2023-05-02T10:19:22;96510.66;;;23.64
50206;BMP280;36098;48.390;10.856;2023-05-02T10:21:48;96503.03;;;23.73
50206;BMP280;36098;48.390;10.856;2023-05-02T10:24:13;96507.50;;;23.67
50206;BMP280;36098;48.390;10.856;2023-05-02T10:26:39;96507.50;;;23.62
50206;BMP280;36098;48.390;10.856;2023-05-02T10:29:04;96501.16;;;23.68
50206;BMP280;36098;48.390;10.856;2023-05-02T10:31:32;96510.34;;;23.46
50206;BMP280;36098;48.390;10.856;2023-05-02T10:33:57;96502.16;;;23.23
50206;BMP280;36098;48.390;10.856;2023-05-02T10:36:23;96509.97;;;23.08
50206;BMP280;36098;48.390;10.856;2023-05-02T10:38:49;96509.09;;;22.87
50206;BMP280;36098;48.390;10.856;2023-05-02T10:41:16;96510.34;;;22.70
50206;BMP280;36098;48.390;10.856;2023-05-02T10:43:46;96512.16;;;22.59
50206;BMP280;36098;48.390;10.856;2023-05-02T10:51:27;96492.38;;;22.52
50206;BMP280;36098;48.390;10.856;2023-05-02T10:53:53;96481.06;;;22.56
50206;BMP280;36098;48.390;10.856;2023-05-02T10:56:19;96485.59;;;22.61
50206;BMP280;36098;48.390;10.856;2023-05-02T10:58:46;96491.25;;;22.94
50206;BMP280;36098;48.390;10.856;2023-05-02T11:03:56;96475.31;;;23.75
50206;BMP280;36098;48.390;10.856;2023-05-02T11:06:25;96479.03;;;23.64
50206;BMP280;36098;48.390;10.856;2023-05-02T11:08:51;96483.25;;;23.95
50206;BMP280;36098;48.390;10.856;2023-05-02T11:14:00;96477.41;;;23.53
50206;BMP280;36098;48.390;10.856;2023-05-02T11:16:26;96481.38;;;23.56
50206;BMP280;36098;48.390;10.856;2023-05-02T11:18:57;96470.03;;;23.55
50206;BMP280;36098;48.390;10.856;2023-05-02T11:21:24;96472.44;;;23.67
50206;BMP280;36098;48.390;10.856;2023-05-02T11:23:49;96472.97;;;23.74
50206;BMP280;36098;48.390;10.856;2023-05-02T11:26:20;96477.41;;;23.53
50206;BMP280;36098;48.390;10.856;2023-05-02T11:28:47;96475.06;;;23.77
50206;BMP280;36098;48.390;10.856;2023-05-02T11:33:55;96473.25;;;24.02
50206;BMP280;36098;48.390;10.856;2023-05-02T11:36:30;96475.88;;;24.02
50206;BMP280;36098;48.390;10.856;2023-05-02T11:38:57;96474.00;;;23.78
50206;BMP280;36098;48.390;10.856;2023-05-02T11:41:22;96465.84;;;23.64
50206;BMP280;36098;48.390;10.856;2023-05-02T11:44:02;96461.63;;;24.18
50206;BMP280;36098;48.390;10.856;2023-05-02T11:46:27;96467.44;;;24.00
50206;BMP280;36098;48.390;10.856;2023-05-02T11:48:53;96466.41;;;23.96
50206;BMP280;36098;48.390;10.856;2023-05-02T11:51:21;96466.38;;;24.06
50206;BMP280;36098;48.390;10.856;2023-05-02T11:53:46;96473.78;;;23.89
50206;BMP280;36098;48.390;10.856;2023-05-02T11:56:12;96468.50;;;23.84
50206;BMP280;36098;48.390;10.856;2023-05-02T11:58:37;96463.47;;;23.98
50206;BMP280;36098;48.390;10.856;2023-05-02T12:01:14;96473.72;;;24.14
50206;BMP280;36098;48.390;10.856;2023-05-02T12:03:44;96468.50;;;24.04
50206;BMP280;36098;48.390;10.856;2023-05-02T12:06:13;96461.94;;;23.87
50206;BMP280;36098;48.390;10.856;2023-05-02T12:08:42;96465.84;;;23.89
50206;BMP280;36098;48.390;10.856;2023-05-02T12:11:08;96462.41;;;23.79
50206;BMP280;36098;48.390;10.856;2023-05-02T12:13:47;96470.03;;;24.25
50206;BMP280;36098;48.390;10.856;2023-05-02T12:16:14;96470.03;;;24.25
50206;BMP280;36098;48.390;10.856;2023-05-02T12:18:42;96473.47;;;24.21
50206;BMP280;36098;48.390;10.856;2023-05-02T12:21:08;96466.59;;;24.30
50206;BMP280;36098;48.390;10.856;2023-05-02T12:23:39;96466.03;;;24.53
50206;BMP280;36098;48.390;10.856;2023-05-02T12:26:15;96471.06;;;24.34
50206;BMP280;36098;48.390;10.856;2023-05-02T12:28:47;96467.94;;;24.17
50206;BMP280;36098;48.390;10.856;2023-05-02T12:31:14;96460.50;;;24.39
50206;BMP280;36098;48.390;10.856;2023-05-02T12:33:45;96462.34;;;24.39
50206;BMP280;36098;48.390;10.856;2023-05-02T12:36:14;96456.75;;;24.65
50206;BMP280;36098;48.390;10.856;2023-05-02T12:38:55;96461.53;;;24.53
50206;BMP280;36098;48.390;10.856;2023-05-02T12:41:35;96451.25;;;24.47
50206;BMP280;36098;48.390;10.856;2023-05-02T12:44:04;96460.47;;;24.49
50206;BMP280;36098;48.390;10.856;2023-05-02T12:46:32;96450.47;;;24.56
50206;BMP280;36098;48.390;10.856;2023-05-02T12:49:00;96449.41;;;24.57
50206;BMP280;36098;48.390;10.856;2023-05-02T12:51:28;96450.41;;;24.66
50206;BMP280;36098;48.390;10.856;2023-05-02T12:53:55;96450.38;;;24.76
50206;BMP280;36098;48.390;10.856;2023-05-02T12:56:20;96452.44;;;24.84
50206;BMP280;36098;48.390;10.856;2023-05-02T12:58:47;96443.91;;;25.02
50206;BMP280;36098;48.390;10.856;2023-05-02T13:01:13;96444.16;;;25.01
50206;BMP280;36098;48.390;10.856;2023-05-02T13:03:39;96441.81;;;24.99
50206;BMP280;36098;48.390;10.856;2023-05-02T13:06:04;96442.88;;;24.98
50206;BMP280;36098;48.390;10.856;2023-05-02T13:08:33;96440.75;;;25.00
50206;BMP280;36098;48.390;10.856;2023-05-02T13:10:59;96437.56;;;25.03
50206;BMP280;36098;48.390;10.856;2023-05-02T13:13:24;96446.25;;;25.09
50206;BMP280;36098;48.390;10.856;2023-05-02T13:15:53;96439.34;;;25.13
50206;BMP280;36098;48.390;10.856;2023-05-02T13:18:18;96444.38;;;25.19
50206;BMP280;36098;48.390;10.856;2023-05-02T13:20:46;96442.72;;;25.28
50206;BMP280;36098;48.390;10.856;2023-05-02T13:23:16;96442.19;;;25.26
50206;BMP280;36098;48.390;10.856;2023-05-02T13:25:42;96444.28;;;25.29
50206;BMP280;36098;48.390;10.856;2023-05-02T13:28:07;96440.81;;;25.33
50206;BMP280;36098;48.390;10.856;2023-05-02T13:30:38;96440.28;;;25.36
50206;BMP280;36098;48.390;10.856;2023-05-02T13:33:05;96444.69;;;25.46
50206;BMP280;36098;48.390;10.856;2023-05-02T13:35:36;96442.59;;;25.43
50206;BMP280;36098;48.390;10.856;2023-05-02T13:38:02;96436.00;;;25.40
50206;BMP280;36098;48.390;10.856;2023-05-02T13:40:27;96439.72;;;25.39
50206;BMP280;36098;48.390;10.856;2023-05-02T13:42:53;96433.38;;;25.40
50206;BMP280;36098;48.390;10.856;2023-05-02T13:45:18;96438.66;;;25.40
50206;BMP280;36098;48.390;10.856;2023-05-02T13:47:43;96435.22;;;25.40
50206;BMP280;36098;48.390;10.856;2023-05-02T13:50:09;96436.34;;;25.29
50206;BMP280;36098;48.390;10.856;2023-05-02T13:52:34;96434.31;;;25.21
50206;BMP280;36098;48.390;10.856;2023-05-02T13:54:59;96428.50;;;25.14
50206;BMP280;36098;48.390;10.856;2023-05-02T13:57:25;96430.75;;;25.35
50206;BMP280;36098;48.390;10.856;2023-05-02T13:59:53;96435.34;;;25.25
50206;BMP280;36098;48.390;10.856;2023-05-02T14:02:21;96435.69;;;25.09
50206;BMP280;36098;48.390;10.856;2023-05-02T14:04:52;96432.00;;;25.05
50206;BMP280;36098;48.390;10.856;2023-05-02T14:07:17;96436.94;;;25.21
50206;BMP280;36098;48.390;10.856;2023-05-02T14:09:45;96432.66;;;25.30
50206;BMP280;36098;48.390;10.856;2023-05-02T14:12:10;96426.63;;;25.24
50206;BMP280;36098;48.390;10.856;2023-05-02T14:14:35;96439.97;;;25.43
50206;BMP280;36098;48.390;10.856;2023-05-02T14:17:05;96431.72;;;25.06
50206;BMP280;36098;48.390;10.856;2023-05-02T14:19:30;96440.34;;;24.78
50206;BMP280;36098;48.390;10.856;2023-05-02T14:21:56;96444.25;;;24.81
50206;BMP280;36098;48.390;10.856;2023-05-02T14:24:21;96437.41;;;24.85
50206;BMP280;36098;48.390;10.856;2023-05-02T14:26:47;96435.50;;;24.90
50206;BMP280;36098;48.390;10.856;2023-05-02T14:29:15;96429.44;;;24.90
50206;BMP280;36098;48.390;10.856;2023-05-02T14:31:46;96445.03;;;24.86
50206;BMP280;36098;48.390;10.856;2023-05-02T14:34:14;96444.50;;;24.89
50206;BMP280;36098;48.390;10.856;2023-05-02T14:36:45;96440.63;;;24.72
50206;BMP280;36098;48.390;10.856;2023-05-02T14:39:13;96441.72;;;24.61
50206;BMP280;36098;48.390;10.856;2023-05-02T14:41:42;96443.34;;;24.52